Time;durP1;ratioP1;P1;durP2;ratioP2;P2;SDS_P1;SDS_P2;PMS_P1;PMS_P2;Temp;Humidity;BMP_temperature;BMP_pressure;BME280_temperature;BME280_humidity;BME280_pressure;Samples;Min_cycle;Max_cycle;Signal;HPM_P1;HPM_P2
2022/09/02 07:28:04;;;;;;;5.22;2.08;;;;;;;17.63;59.73;96552.69;4249135;27;20799;-62
2022/09/02 07:29:07;;;;;;;6.80;2.10;;;;;;;17.14;61.23;96556.31;2069394;28;1296854;-63
2022/09/02 07:30:10;;;;;;;5.18;1.85;;;;;;;17.22;61.61;96555.78;2114930;28;20425;-63
2022/09/02 07:31:14;;;;;;;6.10;2.00;;;;;;;17.34;61.44;96552.22;2115126;28;20190;-63
2022/09/02 07:32:17;;;;;;;6.18;2.38;;;;;;;18.07;59.52;96552.13;2120097;27;20226;-63
2022/09/02 07:55:25;;;;;;;5.60;2.13;;;;;;;18.96;56.81;96549.63;2090102;28;21313;-62
2022/09/02 07:56:28;;;;;;;6.22;2.25;;;;;;;19.11;55.66;96554.66;2085346;28;20639;-65
2022/09/02 07:57:30;;;;;;;6.80;2.10;;;;;;;18.36;57.29;96554.31;2080046;28;20608;-64
2022/09/02 07:58:32;;;;;;;8.45;2.55;;;;;;;18.41;57.02;96539.78;2078693;28;20193;-64
2022/09/02 07:59:34;;;;;;;6.50;1.80;;;;;;;19.02;55.79;96540.34;2078815;28;20205;-64
2022/09/02 08:00:36;;;;;;;12.13;2.30;;;;;;;19.24;56.29;96540.31;2077770;28;20212;-65
2022/09/02 08:01:38;;;;;;;8.82;2.33;;;;;;;20.10;54.33;96544.75;2078638;28;20244;-64
2022/09/02 08:02:40;;;;;;;11.32;2.67;;;;;;;20.11;54.45;96543.75;2071055;28;20264;-63
2022/09/02 08:17:28;;;;;;;18.13;2.55;;;;;;;21.07;50.94;96537.34;2077795;28;20570;-65
2022/09/02 08:18:30;;;;;;;16.60;2.67;;;;;;;20.87;51.25;96555.88;2070139;28;20598;-65
2022/09/02 08:19:32;;;;;;;16.67;2.55;;;;;;;20.29;53.58;96551.13;2070460;28;20255;-65
2022/09/02 08:20:33;;;;;;;5.93;2.00;;;;;;;19.73;52.56;96556.59;2070480;28;20193;-65
2022/09/02 08:21:35;;;;;;;5.82;2.35;;;;;;;18.80;54.77;96547.34;2067474;28;20555;-63
2022/09/02 08:22:37;;;;;;;4.57;2.03;;;;;;;18.64;56.07;96558.31;2066076;28;20218;-64
2022/09/02 08:23:39;;;;;;;4.63;1.90;;;;;;;18.76;56.62;96544.09;2067873;28;20250;-63
2022/09/02 08:24:41;;;;;;;9.43;4.82;;;;;;;19.61;54.62;96544.38;2068948;28;20249;-63
2022/09/02 08:25:43;;;;;;;9.07;2.28;;;;;;;19.90;54.34;96543.78;2069655;28;20205;-63
2022/09/02 08:26:44;;;;;;;9.55;2.47;;;;;;;20.31;52.41;96546.53;2069785;28;20688;-63
2022/09/02 08:27:46;;;;;;;14.45;2.50;;;;;;;20.25;52.21;96545.25;2073011;28;20236;-63
2022/09/02 08:28:47;;;;;;;9.70;1.95;;;;;;;20.63;52.12;96548.22;2070762;28;20209;-64
2022/09/02 08:29:53;;;;;;;13.43;2.20;;;;;;;20.63;51.13;96554.38;2068190;28;20204;-64
2022/09/02 08:30:58;;;;;;;6.38;1.85;;;;;;;20.10;51.53;96544.75;2067672;28;20205;-64
2022/09/02 08:45:30;;;;;;;6.72;2.00;;;;;;;19.84;50.64;96552.25;2084724;28;20565;-65
2022/09/02 08:46:34;;;;;;;8.95;1.88;;;;;;;18.90;51.22;96552.78;2077200;28;20274;-63
2022/09/02 08:47:37;;;;;;;3.95;1.63;;;;;;;19.18;51.73;96539.97;2076258;28;20217;-62
2022/09/02 08:49:01;;;;;;;3.75;1.40;;;;;;;19.10;52.36;96543.25;2077584;28;20201;-63
2022/09/02 08:50:09;;;;;;;7.07;2.05;;;;;;;18.72;52.36;96542.66;2078046;28;20208;-63
2022/09/02 08:51:29;;;;;;;3.67;1.20;;;;;;;18.60;52.67;96540.97;2073503;28;20251;-63
2022/09/02 08:53:03;;;;;;;11.07;1.73;;;;;;;19.02;52.55;96535.91;2075627;28;20307;-62
2022/09/02 09:09:03;;;;;;;5.95;1.60;;;;;;;19.31;49.90;96538.00;2109980;28;20455;-65
2022/09/02 09:11:01;;;;;;;9.43;1.50;;;;;;;19.69;48.89;96531.34;2093162;28;20897;-63
2022/09/02 09:12:14;;;;;;;4.82;1.20;;;;;;;19.49;48.73;96529.50;2091119;27;20199;-63
2022/09/02 09:14:12;;;;;;;3.20;1.50;;;;;;;19.02;50.42;96535.06;2084546;28;20211;-64
2022/09/02 09:26:29;;;;;;;11.85;1.60;;;;;;;19.19;48.06;96515.19;2085103;28;20579;-64
2022/09/02 09:33:03;;;;;;;7.55;1.27;;;;;;;19.91;46.97;96518.97;2077267;28;20185;-65
2022/09/02 09:34:11;;;;;;;15.90;1.52;;;;;;;20.80;46.18;96507.81;2077848;28;20315;-64
2022/09/02 09:35:17;;;;;;;6.03;1.33;;;;;;;20.77;46.55;96523.16;2075957;28;20197;-64
2022/09/02 09:36:19;;;;;;;2.90;1.35;;;;;;;20.16;46.63;96511.56;2077737;28;20189;-64
2022/09/02 09:47:18;;;;;;;8.73;1.80;;;;;;;20.71;44.36;96525.38;2083439;28;20569;-63
2022/09/02 09:48:29;;;;;;;4.25;1.40;;;;;;;20.44;45.33;96512.69;2084720;28;20262;-64
2022/09/02 09:49:32;;;;;;;5.57;2.42;;;;;;;20.38;45.71;96503.47;2080906;28;20197;-62
2022/09/02 09:50:33;;;;;;;11.52;4.63;;;;;;;21.19;43.43;96510.56;2081369;28;20207;-63
2022/09/02 09:58:09;;;;;;;2.42;1.00;;;;;;;20.52;44.73;96520.00;2079173;28;20221;-62
2022/09/02 09:59:40;;;;;;;7.95;1.60;;;;;;;20.31;45.53;96506.78;2080763;28;20611;-62
2022/09/02 10:15:08;;;;;;;5.30;1.25;;;;;;;23.26;41.34;96501.06;2110778;28;20430;-62
2022/09/02 10:16:41;;;;;;;3.63;1.30;;;;;;;21.67;42.24;96510.72;2060336;28;1428122;-63
2022/09/02 10:18:04;;;;;;;6.88;1.55;;;;;;;21.87;43.06;96500.09;2094478;28;20226;-64
2022/09/02 10:19:18;;;;;;;5.25;1.33;;;;;;;22.07;42.68;96499.06;2100144;28;20198;-63
2022/09/02 10:20:23;;;;;;;24.98;2.42;;;;;;;21.51;43.29;96482.88;2103350;28;20191;-63
2022/09/02 10:21:43;;;;;;;18.50;1.95;;;;;;;22.30;42.61;96493.38;2103843;28;20641;-64
2022/09/02 10:23:07;;;;;;;14.32;1.67;;;;;;;22.56;41.19;96496.22;2104047;28;20222;-63
2022/09/02 10:24:19;;;;;;;11.57;1.58;;;;;;;22.78;40.36;96487.03;2109127;28;20198;-63
2022/09/02 10:35:16;;;;;;;2.38;1.02;;;;;;;21.81;42.16;96485.53;2084348;28;20568;-60
2022/09/02 10:36:36;;;;;;;11.00;1.60;;;;;;;22.35;41.73;96491.13;2082719;28;20200;-62
2022/09/02 10:38:11;;;;;;;10.82;1.65;;;;;;;21.91;42.57;96482.84;2066791;28;20221;-63
2022/09/02 10:39:21;;;;;;;17.13;1.33;;;;;;;22.53;41.18;96480.56;2057826;28;20196;-62
2022/09/02 10:40:32;;;;;;;3.45;1.17;;;;;;;22.29;40.80;96489.03;2057570;28;20199;-63
2022/09/02 10:41:45;;;;;;;7.18;1.42;;;;;;;22.25;41.46;96472.53;2056796;28;20198;-62
2022/09/02 10:43:03;;;;;;;3.00;1.42;;;;;;;21.88;41.78;96481.31;2058150;28;20218;-63
2022/09/02 10:44:26;;;;;;;2.20;0.98;;;;;;;22.52;40.94;96473.56;2055979;28;20206;-63
2022/09/02 10:45:45;;;;;;;5.15;1.50;;;;;;;22.77;41.08;96466.72;2057204;28;20661;-63
2022/09/02 10:47:03;;;;;;;7.97;1.40;;;;;;;22.68;41.13;96472.94;2058095;28;20198;-63
2022/09/02 10:48:23;;;;;;;4.00;1.23;;;;;;;24.56;39.03;96471.16;2058078;28;20250;-64
2022/09/02 10:49:49;;;;;;;1.98;1.00;;;;;;;23.96;39.13;96449.66;2059607;28;20305;-64
2022/09/02 11:00:38;;;;;;;15.88;1.73;;;;;;;23.58;39.33;96438.38;2086186;28;20606;-61
2022/09/02 11:01:50;;;;;;;19.38;2.97;;;;;;;24.76;38.09;96442.41;2083849;28;20200;-64
2022/09/02 11:02:54;;;;;;;9.57;1.33;;;;;;;25.83;36.24;96452.38;2073404;28;20523;-64
2022/09/02 11:04:07;;;;;;;11.77;1.75;;;;;;;25.90;36.24;96450.66;2073619;28;20201;-64
2022/09/02 11:05:13;;;;;;;3.20;1.20;;;;;;;27.25;34.41;96440.94;2075010;28;20203;-62
2022/09/02 11:06:27;;;;;;;9.40;1.65;;;;;;;27.52;33.33;96435.06;2072381;28;20860;-62
2022/09/02 11:08:04;;;;;;;8.80;1.50;;;;;;;23.72;38.71;96439.66;2072572;28;20226;-62
2022/09/02 11:09:35;;;;;;;4.00;1.30;;;;;;;25.03;36.88;96449.28;2073309;28;20194;-61
2022/09/02 11:10:42;;;;;;;5.45;1.60;;;;;;;24.07;37.79;96445.06;2072300;28;20229;-61
2022/09/02 11:11:51;;;;;;;6.90;1.70;;;;;;;22.40;39.68;96449.00;2072542;28;20198;-61
2022/09/02 11:13:02;;;;;;;5.05;1.40;;;;;;;22.66;39.97;96441.16;2064366;28;20210;-61
2022/09/02 11:14:33;;;;;;;9.98;1.70;;;;;;;23.38;38.12;96443.03;2065056;28;20206;-61
2022/09/02 11:27:47;;;;;;;12.70;3.83;;;;;;;26.72;34.70;96431.69;2095045;27;21079;-64
2022/09/02 11:28:58;;;;;;;10.32;2.38;;;;;;;27.50;32.97;96425.53;2092488;28;20249;-65
2022/09/02 11:30:07;;;;;;;8.15;1.60;;;;;;;28.43;31.93;96426.13;2096515;28;20191;-65
2022/09/02 11:31:23;;;;;;;12.90;1.67;;;;;;;26.44;34.01;96434.00;2098785;28;20195;-65
2022/09/02 11:32:33;;;;;;;5.57;1.33;;;;;;;25.53;35.31;96430.66;2088145;28;20227;-65
2022/09/02 11:33:51;;;;;;;8.48;1.50;;;;;;;24.87;35.55;96433.22;2092510;28;20197;-65
2022/09/02 11:34:56;;;;;;;2.35;1.10;;;;;;;25.33;35.61;96424.78;2088618;28;20230;-64
2022/09/02 11:35:58;;;;;;;3.10;1.08;;;;;;;24.96;35.71;96432.25;2087637;28;20201;-63
2022/09/02 11:37:06;;;;;;;3.65;1.33;;;;;;;24.31;36.17;96419.50;2087656;28;20188;-64
2022/09/02 11:38:49;;;;;;;5.47;1.75;;;;;;;23.99;36.75;96421.03;2089232;28;20235;-64
2022/09/02 11:39:59;;;;;;;3.90;1.27;;;;;;;25.13;35.58;96427.78;2092727;28;20202;-63
2022/09/02 11:41:27;;;;;;;2.70;1.17;;;;;;;24.06;36.42;96414.03;2089439;28;20208;-63
2022/09/02 11:51:51;;;;;;;7.63;1.80;;;;;;;29.56;30.05;96435.66;2074796;27;1267964;-63
2022/09/02 11:53:00;;;;;;;8.32;1.02;;;;;;;29.47;29.38;96413.44;2085810;28;20254;-64
2022/09/02 11:54:04;;;;;;;11.60;1.45;;;;;;;29.77;28.27;96427.56;2085223;28;20224;-64
2022/09/02 11:55:23;;;;;;;13.77;1.55;;;;;;;26.30;32.73;96432.06;2085561;28;20200;-64
2022/09/02 11:56:33;;;;;;;17.55;1.77;;;;;;;24.99;34.94;96428.41;2086613;28;20200;-64
2022/09/02 11:57:40;;;;;;;22.77;1.95;;;;;;;26.44;33.12;96425.97;2085966;28;20799;-63
2022/09/02 11:58:45;;;;;;;8.25;2.08;;;;;;;25.04;34.82;96426.06;2085809;28;20302;-64
2022/09/02 11:59:49;;;;;;;2.38;1.10;;;;;;;24.07;36.36;96432.53;2084505;28;20350;-63
2022/09/02 12:00:54;;;;;;;8.90;1.30;;;;;;;23.63;36.29;96427.25;2086693;28;20200;-63
2022/09/02 12:01:56;;;;;;;4.13;1.25;;;;;;;23.61;36.43;96411.41;2085820;28;20227;-63
2022/09/02 12:03:00;;;;;;;1.90;0.90;;;;;;;24.81;35.22;96417.88;2086415;28;20203;-63
2022/09/02 12:21:25;;;;;;;3.78;1.10;;;;;;;28.55;29.40;96421.09;2072946;27;1432642;-64
2022/09/02 12:22:32;;;;;;;2.38;0.95;;;;;;;28.02;29.85;96416.66;2104428;28;20662;-64
2022/09/02 12:23:49;;;;;;;1.88;1.10;;;;;;;29.15;28.77;96418.28;2101870;28;20207;-62
2022/09/02 12:25:00;;;;;;;5.47;1.30;;;;;;;29.37;28.06;96413.78;2095217;28;20207;-63
2022/09/02 12:26:07;;;;;;;8.52;1.13;;;;;;;29.84;27.89;96424.09;2095254;28;20206;-63
2022/09/02 12:27:39;;;;;;;1.83;1.10;;;;;;;29.61;27.82;96420.63;2089977;28;20307;-63
2022/09/02 12:28:45;;;;;;;4.15;1.30;;;;;;;29.47;28.14;96398.16;2084082;28;20193;-62
2022/09/02 12:29:46;;;;;;;2.08;0.90;;;;;;;30.12;27.17;96411.50;2085700;28;20197;-63
2022/09/02 12:30:55;;;;;;;5.45;1.73;;;;;;;29.72;27.25;96418.44;2086837;28;20188;-63
2022/09/02 12:31:57;;;;;;;2.00;1.10;;;;;;;30.44;26.91;96417.25;2085919;28;20204;-63
2022/09/02 12:33:12;;;;;;;5.13;1.05;;;;;;;30.96;26.74;96416.84;2086674;28;20605;-63
2022/09/02 12:34:19;;;;;;;16.05;2.03;;;;;;;30.74;26.76;96421.53;2087035;28;20200;-64
2022/09/02 12:44:26;;;;;;;13.48;1.35;;;;;;;30.06;27.35;96404.19;2086612;28;20552;-64
2022/09/02 12:52:10;;;;;;;3.42;1.10;;;;;;;26.08;31.70;96389.00;2079746;28;20211;-65
2022/09/02 12:53:31;;;;;;;3.60;1.30;;;;;;;26.29;31.76;96379.53;2081508;28;20223;-65
2022/09/02 12:54:35;;;;;;;3.53;1.10;;;;;;;28.00;30.36;96380.31;2084027;28;20239;-64
2022/09/02 12:55:37;;;;;;;5.97;1.20;;;;;;;29.15;29.36;96353.78;2084482;28;20663;-65
2022/09/02 12:56:47;;;;;;;15.20;1.52;;;;;;;29.95;28.68;96389.44;2080995;28;20435;-65
2022/09/02 12:57:52;;;;;;;5.60;1.25;;;;;;;28.50;28.88;96378.69;2085158;28;20560;-65
2022/09/02 12:58:55;;;;;;;1.67;0.90;;;;;;;26.32;31.72;96377.34;2085370;28;20200;-65
2022/09/02 13:00:03;;;;;;;2.50;1.20;;;;;;;26.18;31.80;96375.38;2081983;28;20199;-65
2022/09/02 13:01:42;;;;;;;3.53;1.15;;;;;;;27.07;31.73;96374.25;2081118;28;20216;-65
2022/09/02 13:03:05;;;;;;;1.45;0.90;;;;;;;26.20;32.47;96371.53;2080935;28;20696;-63
2022/09/02 13:15:03;;;;;;;8.95;1.20;;;;;;;26.46;31.63;96370.44;4263881;27;20407;-66
2022/09/02 13:16:37;;;;;;;12.00;1.67;;;;;;;25.89;32.08;96374.09;2055182;27;1529178;-66
2022/09/02 13:18:00;;;;;;;34.53;2.15;;;;;;;27.30;30.38;96309.91;2097993;28;20698;-65
2022/09/02 13:19:15;;;;;;;17.42;1.45;;;;;;;29.02;28.88;96367.94;2098577;28;20191;-66
2022/09/02 13:20:41;;;;;;;3.72;1.40;;;;;;;27.83;29.90;96360.88;2098780;28;20191;-66
2022/09/02 13:22:01;;;;;;;6.82;1.60;;;;;;;28.75;29.00;96356.91;2099449;28;20772;-66
2022/09/02 13:23:20;;;;;;;12.93;1.55;;;;;;;28.51;28.76;96360.75;2095231;28;20217;-66
2022/09/02 13:24:35;;;;;;;5.72;1.30;;;;;;;27.47;29.60;96356.22;2099341;28;20199;-65
2022/09/02 13:25:58;;;;;;;9.93;1.38;;;;;;;26.72;30.78;96345.19;2100176;28;20204;-66
2022/09/02 13:27:27;;;;;;;15.15;1.70;;;;;;;28.70;28.58;96345.91;2099345;28;20608;-65
2022/09/02 13:28:58;;;;;;;13.98;1.60;;;;;;;28.24;28.86;96344.34;2096764;28;20252;-65
2022/09/02 13:30:13;;;;;;;9.52;1.35;;;;;;;27.91;28.45;96325.06;2096904;28;20918;-65
2022/09/02 13:31:26;;;;;;;4.35;1.27;;;;;;;26.16;31.20;96322.06;2105148;28;20195;-65
2022/09/02 13:32:34;;;;;;;6.90;1.17;;;;;;;27.90;29.15;96334.97;2103309;28;20218;-65
2022/09/02 13:42:25;;;;;;;1.38;0.90;;;;;;;25.81;31.95;96329.50;2100023;27;20552;-63
2022/09/02 13:43:32;;;;;;;2.53;0.95;;;;;;;25.42;32.45;96319.59;2098778;28;20291;-63
2022/09/02 14:08:04;;;;;;;3.58;1.20;;;;;;;29.92;29.32;96302.91;2095489;28;20302;-65
2022/09/02 14:09:25;;;;;;;9.23;1.50;;;;;;;30.30;28.59;96288.97;2099475;28;20660;-65
2022/09/02 14:19:31;;;;;;;8.25;1.70;;;;;;;27.91;30.21;96285.69;2093264;28;20566;-62
2022/09/02 14:20:33;;;;;;;10.55;1.50;;;;;;;26.96;31.42;96279.91;2087207;28;20203;-64
2022/09/02 14:21:43;;;;;;;4.53;1.17;;;;;;;26.12;32.55;96269.91;2087230;28;20258;-63
2022/09/02 14:22:56;;;;;;;5.20;1.30;;;;;;;25.58;34.02;96271.47;2077847;28;20669;-63
2022/09/02 14:23:58;;;;;;;11.32;1.95;;;;;;;27.61;31.80;96274.94;2078034;28;20304;-63
2022/09/02 14:24:59;;;;;;;5.65;1.33;;;;;;;27.34;31.94;96254.94;2078593;28;20201;-64
2022/09/02 14:32:24;;;;;;;5.15;1.55;;;;;;;26.35;32.93;96229.81;2076917;28;20222;-65
2022/09/02 14:33:31;;;;;;;3.65;1.20;;;;;;;26.49;32.87;96259.50;2078269;28;20197;-65
2022/09/02 14:34:36;;;;;;;1.75;1.10;;;;;;;25.62;34.08;96247.03;2076334;28;20201;-63
2022/09/02 14:35:38;;;;;;;4.55;1.10;;;;;;;26.95;32.95;96239.91;2077006;28;20344;-65
2022/09/02 14:36:42;;;;;;;8.70;1.60;;;;;;;28.12;31.24;96251.91;2077604;28;20239;-65
2022/09/02 14:37:54;;;;;;;17.00;1.20;;;;;;;26.56;33.33;96247.91;2078084;28;20228;-65
2022/09/02 14:39:14;;;;;;;6.70;1.40;;;;;;;28.34;31.35;96252.75;2077735;28;20220;-65
2022/09/02 14:40:16;;;;;;;3.78;1.20;;;;;;;29.11;30.86;96258.47;2078256;28;20255;-65
2022/09/02 14:41:20;;;;;;;3.25;1.20;;;;;;;29.76;29.61;96259.13;2078026;28;20196;-65
2022/09/02 14:42:26;;;;;;;2.55;1.08;;;;;;;29.38;29.64;96259.53;2077875;28;20261;-65
2022/09/02 14:43:41;;;;;;;2.00;1.00;;;;;;;27.15;32.02;96256.31;2077162;28;20201;-64
2022/09/02 14:44:45;;;;;;;3.55;1.30;;;;;;;27.35;32.07;96243.19;2078034;28;20193;-65
2022/09/02 14:45:49;;;;;;;2.63;1.15;;;;;;;27.10;32.84;96242.63;2077849;28;20266;-65
2022/09/02 14:46:54;;;;;;;7.13;1.50;;;;;;;28.19;31.83;96255.50;2078366;28;20288;-65
2022/09/02 14:48:08;;;;;;;6.35;1.30;;;;;;;28.96;30.77;96231.66;2078592;28;20197;-65
2022/09/02 14:49:18;;;;;;;5.30;1.15;;;;;;;29.55;29.97;96251.16;2077260;28;20651;-65
2022/09/02 14:50:26;;;;;;;4.45;1.20;;;;;;;28.96;30.49;96248.63;2078051;28;20212;-65
2022/09/02 14:51:42;;;;;;;2.72;1.20;;;;;;;29.55;30.38;96243.91;2078924;28;20193;-65
2022/09/02 14:52:47;;;;;;;2.63;1.30;;;;;;;29.23;30.28;96253.38;2076504;28;20228;-65
2022/09/02 14:53:48;;;;;;;2.58;1.05;;;;;;;28.63;30.82;96246.47;2070450;28;20316;-65
2022/09/02 14:54:52;;;;;;;6.38;1.20;;;;;;;27.17;33.00;96244.41;2078179;28;20833;-65
2022/09/02 14:55:55;;;;;;;4.70;1.60;;;;;;;28.22;31.49;96235.50;2077651;28;20204;-65
2022/09/02 14:56:57;;;;;;;14.57;1.40;;;;;;;27.28;32.29;96245.78;2076482;28;20582;-63
2022/09/02 14:58:02;;;;;;;2.25;1.23;;;;;;;26.11;34.23;96241.50;2077355;28;20204;-65
2022/09/02 14:59:03;;;;;;;3.83;1.27;;;;;;;25.58;35.21;96233.19;2077584;28;20225;-64
2022/09/02 15:00:17;;;;;;;4.15;1.30;;;;;;;25.75;35.09;96232.13;2078079;28;20198;-66
2022/09/02 15:01:18;;;;;;;2.75;1.30;;;;;;;26.48;34.57;96228.41;2078630;28;20209;-65
2022/09/02 15:02:27;;;;;;;5.68;1.48;;;;;;;27.92;32.06;96227.47;2077671;28;20234;-66
2022/09/02 15:03:29;;;;;;;4.38;1.10;;;;;;;27.46;33.18;96226.69;2078775;28;20687;-65
2022/09/02 15:04:34;;;;;;;2.50;1.38;;;;;;;28.25;32.50;96230.59;2078694;28;20419;-65
2022/09/02 15:05:36;;;;;;;5.45;1.20;;;;;;;29.03;31.25;96232.56;2078411;28;20220;-66
2022/09/02 15:06:37;;;;;;;5.32;1.10;;;;;;;28.82;31.50;96231.56;2078548;28;20652;-65
2022/09/02 15:07:40;;;;;;;2.50;1.30;;;;;;;29.37;31.21;96227.44;2077262;28;20228;-66
2022/09/02 15:08:41;;;;;;;2.80;0.98;;;;;;;29.81;30.62;96223.53;2079034;28;20185;-66
2022/09/02 15:09:45;;;;;;;3.20;1.40;;;;;;;30.20;29.86;96229.31;2075751;28;20193;-66
2022/09/02 15:10:47;;;;;;;2.37;1.27;;;;;;;30.50;29.26;96235.22;2076596;28;20429;-65
2022/09/02 15:11:52;;;;;;;3.20;1.30;;;;;;;30.48;29.46;96239.97;2076750;28;20429;-65
2022/09/02 15:12:56;;;;;;;2.90;1.00;;;;;;;29.05;30.22;96233.22;2077826;28;20430;-65
2022/09/02 15:13:58;;;;;;;3.27;1.07;;;;;;;29.49;30.54;96239.31;2077936;28;20423;-65
2022/09/02 15:14:59;;;;;;;2.60;1.20;;;;;;;29.73;29.48;96231.78;2078276;28;20415;-65
2022/09/02 15:16:02;;;;;;;5.90;1.10;;;;;;;27.15;33.28;96235.69;2077013;28;20418;-65
2022/09/02 15:17:06;;;;;;;4.37;1.37;;;;;;;28.19;32.20;96226.78;2076398;28;20457;-65
2022/09/02 15:18:08;;;;;;;2.80;1.10;;;;;;;28.93;31.24;96229.38;2077563;28;20430;-64
2022/09/02 15:19:09;;;;;;;8.23;1.73;;;;;;;28.87;31.30;96238.22;2078405;28;20477;-66
2022/09/02 15:27:01;;;;;;;2.57;1.30;;;;;;;27.81;32.70;96256.44;2075490;28;20478;-65
2022/09/02 15:28:02;;;;;;;2.53;1.30;;;;;;;27.25;33.26;96246.16;2078184;28;20944;-66
2022/09/02 15:29:04;;;;;;;4.37;1.20;;;;;;;26.93;34.16;96249.97;2078435;28;21140;-66
2022/09/02 15:30:08;;;;;;;2.80;1.20;;;;;;;26.27;34.75;96253.09;2077645;28;20450;-66
2022/09/02 15:31:09;;;;;;;5.40;1.10;;;;;;;26.54;35.11;96263.31;2071745;28;20446;-65
2022/09/02 15:32:11;;;;;;;4.03;1.00;;;;;;;26.53;34.64;96258.13;2069412;28;20458;-65
2022/09/02 15:33:12;;;;;;;4.03;1.13;;;;;;;25.75;35.96;96268.72;2072952;28;20202;-65
2022/09/02 15:34:20;;;;;;;3.80;1.38;;;;;;;25.63;35.86;96270.09;2073069;28;20795;-65
2022/09/02 15:35:21;;;;;;;4.82;1.30;;;;;;;26.70;34.77;96266.84;2071878;28;20549;-65
2022/09/02 15:36:24;;;;;;;2.95;1.20;;;;;;;26.02;35.01;96258.59;2073130;28;20190;-65
2022/09/02 15:37:26;;;;;;;4.03;1.38;;;;;;;25.96;35.30;96265.44;2071498;28;20248;-65
2022/09/02 15:45:07;;;;;;;6.28;1.45;;;;;;;25.27;37.19;96257.97;2070690;28;20205;-65
2022/09/02 15:46:35;;;;;;;5.32;1.40;;;;;;;25.76;36.35;96251.66;2071387;28;20202;-65
2022/09/02 15:47:37;;;;;;;2.35;1.63;;;;;;;25.56;36.32;96256.56;2071655;28;20221;-65
2022/09/02 15:48:39;;;;;;;2.45;1.30;;;;;;;24.99;36.96;96239.66;2076554;28;20308;-64
2022/09/02 15:49:41;;;;;;;2.10;1.33;;;;;;;25.78;38.11;96257.69;2071277;28;20198;-65
2022/09/02 15:50:42;;;;;;;2.35;1.10;;;;;;;25.79;36.40;96250.47;2079612;28;20197;-64
2022/09/02 15:51:48;;;;;;;2.50;1.42;;;;;;;25.06;37.07;96256.66;2076227;28;20194;-65
2022/09/02 15:52:50;;;;;;;2.22;1.23;;;;;;;25.38;38.87;96254.13;2075700;28;20756;-65
2022/09/02 15:53:57;;;;;;;2.58;1.13;;;;;;;25.54;36.95;96253.25;2072441;28;20197;-64
2022/09/02 15:54:58;;;;;;;5.63;1.50;;;;;;;25.93;38.09;96255.09;2072717;28;20198;-64
2022/09/02 15:56:00;;;;;;;3.17;1.20;;;;;;;26.15;38.02;96247.34;2072875;28;20198;-65
2022/09/02 15:57:02;;;;;;;4.88;1.55;;;;;;;26.16;37.56;96247.16;2071871;28;20216;-64
2022/09/02 15:58:03;;;;;;;10.57;1.40;;;;;;;26.22;37.53;96250.94;2071638;28;20581;-64
2022/09/02 15:59:11;;;;;;;6.82;1.23;;;;;;;26.26;37.57;96243.41;2071105;28;20190;-64
2022/09/02 16:00:12;;;;;;;4.00;1.27;;;;;;;26.03;37.56;96237.00;2070993;28;20221;-65
2022/09/02 16:01:15;;;;;;;4.82;1.20;;;;;;;26.08;37.38;96242.69;2072666;28;20609;-64
2022/09/02 16:02:17;;;;;;;10.73;1.30;;;;;;;25.76;36.85;96238.28;2072281;28;20228;-64
2022/09/02 16:03:18;;;;;;;3.55;1.17;;;;;;;25.86;36.95;96241.59;2072678;28;20194;-65
2022/09/02 16:04:21;;;;;;;2.33;1.58;;;;;;;25.46;37.14;96238.09;2072498;28;20751;-64
2022/09/02 16:05:23;;;;;;;2.53;1.02;;;;;;;25.23;38.33;96236.09;2070004;28;20221;-65
2022/09/02 16:06:25;;;;;;;3.45;1.20;;;;;;;25.74;38.17;96234.97;2076755;28;20197;-64
2022/09/02 16:07:30;;;;;;;5.13;1.45;;;;;;;25.90;37.71;96247.41;2075508;28;20225;-64
2022/09/02 16:08:33;;;;;;;5.30;1.20;;;;;;;25.94;37.74;96237.22;2072675;28;20560;-65
2022/09/02 16:09:35;;;;;;;3.40;1.08;;;;;;;25.63;37.55;96232.69;2068699;28;20611;-64
2022/09/02 16:10:36;;;;;;;3.55;1.30;;;;;;;25.33;37.71;96233.25;2069613;28;20556;-64
2022/09/02 16:11:42;;;;;;;3.88;1.20;;;;;;;25.52;38.24;96241.88;2072752;28;20193;-64
2022/09/02 16:12:44;;;;;;;2.20;1.00;;;;;;;24.40;38.59;96240.59;2070984;28;20224;-64
2022/09/02 16:13:46;;;;;;;3.58;1.30;;;;;;;23.42;40.59;96227.81;2072665;28;20202;-64
2022/09/02 16:14:49;;;;;;;4.47;1.52;;;;;;;23.05;41.31;96235.03;2072774;28;20627;-64
2022/09/02 16:16:03;;;;;;;3.15;1.40;;;;;;;23.06;41.88;96230.53;2072299;28;20206;-65
2022/09/02 16:17:07;;;;;;;3.35;1.30;;;;;;;22.99;41.66;96238.34;2071319;28;20599;-65
2022/09/02 16:18:10;;;;;;;4.43;1.50;;;;;;;22.65;42.31;96236.41;2071782;28;20559;-64
2022/09/02 16:19:12;;;;;;;2.38;1.23;;;;;;;22.44;42.59;96239.41;2070968;28;20245;-64
2022/09/02 16:27:00;;;;;;;5.82;1.38;;;;;;;22.86;42.36;96232.59;2071740;28;20193;-64
2022/09/02 16:28:02;;;;;;;3.25;1.42;;;;;;;23.04;42.09;96229.88;2071611;28;20197;-65
2022/09/02 16:29:09;;;;;;;2.22;1.10;;;;;;;22.75;41.91;96228.34;2072068;28;20198;-63
2022/09/02 16:30:10;;;;;;;2.42;1.30;;;;;;;22.62;43.14;96224.25;2072124;28;20202;-64
2022/09/02 16:31:16;;;;;;;2.50;1.50;;;;;;;22.85;42.58;96226.41;2072432;28;20255;-63
2022/09/02 16:32:17;;;;;;;3.35;1.00;;;;;;;22.67;41.90;96227.28;2070820;28;20224;-64
2022/09/02 16:33:28;;;;;;;3.15;1.30;;;;;;;22.87;42.53;96224.44;2070717;28;20202;-64
2022/09/02 16:34:30;;;;;;;5.13;1.40;;;;;;;23.13;42.18;96227.13;2071956;28;20201;-64
2022/09/02 16:35:31;;;;;;;6.75;1.10;;;;;;;23.68;40.89;96210.91;2071656;28;20201;-64
2022/09/02 16:36:39;;;;;;;3.75;1.45;;;;;;;24.06;40.42;96222.03;2070329;28;20684;-64
2022/09/02 16:37:41;;;;;;;2.25;1.40;;;;;;;24.00;40.91;96231.56;2070483;28;20233;-64
2022/09/02 16:38:43;;;;;;;4.45;1.38;;;;;;;23.08;41.62;96226.72;2073609;28;20205;-64
2022/09/02 16:39:45;;;;;;;11.70;1.20;;;;;;;22.99;41.87;96223.22;2072492;28;20688;-65
2022/09/02 16:40:50;;;;;;;6.03;1.50;;;;;;;22.85;42.27;96213.13;2071706;28;20284;-64
2022/09/02 16:41:53;;;;;;;6.18;1.40;;;;;;;22.92;42.29;96214.16;2069523;28;20193;-65
2022/09/02 16:42:54;;;;;;;2.35;1.27;;;;;;;23.45;41.67;96233.66;2071127;28;20293;-65
2022/09/02 16:43:57;;;;;;;4.80;1.20;;;;;;;23.24;41.65;96223.38;2071791;28;20247;-65
2022/09/02 16:44:59;;;;;;;3.25;1.33;;;;;;;23.03;42.17;96225.53;2070242;28;20823;-64
2022/09/02 16:46:04;;;;;;;11.70;1.92;;;;;;;23.44;41.40;96229.31;2078840;28;20208;-64
2022/09/02 16:47:05;;;;;;;5.82;1.50;;;;;;;23.56;40.92;96227.19;2078864;28;20201;-65
2022/09/02 16:48:07;;;;;;;4.07;1.30;;;;;;;23.55;41.00;96228.19;2072296;28;20204;-64
2022/09/02 16:49:10;;;;;;;4.65;1.35;;;;;;;23.33;41.74;96226.09;2072471;28;20205;-64
2022/09/02 16:50:11;;;;;;;4.40;1.40;;;;;;;22.67;42.81;96203.34;2072001;28;20201;-65
2022/09/02 16:51:14;;;;;;;3.42;1.42;;;;;;;23.05;41.58;96215.59;2070879;28;20641;-65
2022/09/02 16:52:15;;;;;;;4.07;1.30;;;;;;;22.63;42.27;96227.78;2071077;28;20225;-65
2022/09/02 16:53:17;;;;;;;7.65;1.38;;;;;;;22.75;42.16;96229.16;2072066;28;20198;-64
